< < Back
Terminal Aerodrome Forecast


Current Version              Previous Versions:   1  2  3  4  5  6  7  8  9  

Terminal Aerodrome Forecast

863
FTAK31 PAJN 102335
TAFAGS
TAF
PAGS 102335Z 1100/1124 12008KT P6SM -RA SCT015 OVC035
      TEMPO 1100/1104 6SM -RA OVC012
     FM110600 12010G18KT 3SM -RA BR BKN010 OVC025 WS020/14030KT
     FM111800 04005KT 4SM -RA BR FEW006 SCT010 OVC025
      AMD LTD TO CLD VIS AND WIND=

Latest METAR

603
SAUS70 KWBC 110000 RRK
MTRAGS
METAR KAGS 102353Z 25005KT 10SM CLR 02/M12 A3012 RMK AO2 SLP201
T00171122 10050 20017 51020


USA.gov is the U.S. government's official web portal to all federal, state and local government web resources and services.